SVMI/CCS METAR and TAF weather

Enter ICAO airport designator
Station Type Date Time Source
SVMI METAR 2022/01/26 13:03 UTC NOAA

SVMI 261303Z AUTO 26002KT NCD ///// Q1016


Station Type Date Time Source
SVMI Decoded METAR 2022/01/26 13:03 UTC NOAA

Caracas / Maiquetia Aerop. Intl. Simon Bolivar, Venezuela (SVMI) 10-36N 066-59W 48M
Jan 26, 2022 - 08:03 AM EST / 2022.01.26 1303 UTC
Wind: from the W (260 degrees) at 2 MPH (2 KT):0
Pressure (altimeter): 30.00 in. Hg (1016 hPa)
ob: SVMI 261303Z AUTO 26002KT NCD ///// Q1016
cycle: 13

Station Type Date Time Source
SVMI TAF 2022/01/26 12:03 UTC NOAA

TAF SVMI 261000Z 2612/2712 05006KT 9999 FEW016 TX30/2618Z TN22/2607Z
BECMG 2616/2622 06010KT SCT016 SCT070
FM262300 08002KT 9999 SCT016

Example: see airport list